Time;durP1;ratioP1;P1;durP2;ratioP2;P2;SDS_P1;SDS_P2;PMS_P1;PMS_P2;Temp;Humidity;BMP_temperature;BMP_pressure;BME280_temperature;BME280_humidity;BME280_pressure;Samples;Min_cycle;Max_cycle;Signal;HPM_P1;HPM_P2
2022/01/05 00:01:47;;;;;;;17.75;7.45;;;28.20;73.70;;;;;;5044875;28;20025;-44
2022/01/05 00:04:14;;;;;;;15.52;7.05;;;28.20;73.80;;;;;;5044907;28;20063;-51
2022/01/05 00:06:41;;;;;;;16.90;6.65;;;28.20;73.70;;;;;;5045035;28;20021;-43
2022/01/05 00:09:07;;;;;;;12.82;6.60;;;28.20;73.60;;;;;;5027273;28;20037;-47
2022/01/05 00:11:36;;;;;;;14.48;6.20;;;28.20;73.50;;;;;;5044956;28;20013;-45
2022/01/05 00:14:02;;;;;;;12.02;6.57;;;28.20;73.50;;;;;;5044959;28;20060;-46
2022/01/05 00:16:29;;;;;;;14.65;6.03;;;28.20;73.30;;;;;;5044582;28;20060;-40
2022/01/05 00:18:56;;;;;;;17.15;6.05;;;28.10;73.10;;;;;;5010779;28;20029;-46
2022/01/05 00:21:22;;;;;;;15.68;7.00;;;28.10;73.20;;;;;;5044367;28;20214;-42
2022/01/05 00:23:49;;;;;;;17.23;6.53;;;28.10;73.20;;;;;;5044578;28;20307;-46
2022/01/05 00:26:15;;;;;;;17.88;6.93;;;28.10;73.20;;;;;;5043433;28;20036;-48
2022/01/05 00:28:43;;;;;;;14.82;6.32;;;28.10;73.20;;;;;;5044438;28;20302;-43
2022/01/05 00:31:09;;;;;;;9.88;6.35;;;28.00;73.00;;;;;;5043011;28;20021;-46
2022/01/05 00:33:36;;;;;;;16.25;6.70;;;28.00;73.00;;;;;;5052025;28;20036;-45
2022/01/05 00:36:04;;;;;;;13.25;6.75;;;28.00;73.00;;;;;;5055881;28;20020;-43
2022/01/05 00:38:30;;;;;;;15.60;6.35;;;28.00;73.00;;;;;;5039718;28;20302;-47
2022/01/05 00:40:57;;;;;;;12.95;6.22;;;28.00;72.90;;;;;;5044422;28;20017;-45
2022/01/05 00:43:24;;;;;;;16.83;6.40;;;28.00;73.00;;;;;;5044170;28;20314;-45
2022/01/05 00:45:51;;;;;;;14.90;6.70;;;28.00;72.80;;;;;;5044036;28;20040;-48
2022/01/05 00:48:21;;;;;;;19.10;10.50;;;27.90;72.60;;;;;;5042797;28;20033;-45
2022/01/05 00:50:49;;;;;;;35.95;21.70;;;27.90;72.50;;;;;;5044092;28;20031;-42
2022/01/05 00:53:19;;;;;;;38.15;23.23;;;27.90;72.60;;;;;;5049129;28;20029;-45
2022/01/05 00:55:47;;;;;;;29.15;17.95;;;27.90;72.40;;;;;;5054576;28;20016;-45
2022/01/05 00:58:15;;;;;;;23.83;13.82;;;27.90;72.40;;;;;;5069429;28;20029;-44
2022/01/05 01:00:42;;;;;;;21.92;12.60;;;27.90;72.30;;;;;;5054506;28;20029;-49
2022/01/05 01:03:08;;;;;;;18.80;9.77;;;27.90;72.30;;;;;;5068531;28;20048;-44
2022/01/05 01:05:37;;;;;;;18.42;8.45;;;27.80;72.20;;;;;;5043826;28;20021;-43
2022/01/05 01:08:04;;;;;;;13.20;7.55;;;27.80;72.10;;;;;;5043263;28;20024;-53
2022/01/05 01:10:31;;;;;;;17.60;7.55;;;27.80;72.00;;;;;;5035863;28;20017;-51
2022/01/05 01:12:59;;;;;;;14.55;7.10;;;27.80;72.00;;;;;;5036794;28;20294;-43
2022/01/05 01:15:25;;;;;;;13.38;7.07;;;27.80;72.10;;;;;;5051950;28;20302;-48
2022/01/05 01:17:52;;;;;;;16.13;6.75;;;27.80;71.90;;;;;;5063452;28;20043;-43
2022/01/05 01:20:20;;;;;;;13.80;6.53;;;27.80;72.00;;;;;;5062497;28;20033;-52
2022/01/05 01:22:51;;;;;;;14.43;6.70;;;27.80;71.90;;;;;;5048295;28;20045;-46
2022/01/05 01:25:18;;;;;;;15.85;6.40;;;27.70;71.80;;;;;;5043578;28;20026;-42
2022/01/05 01:27:45;;;;;;;12.43;5.40;;;27.70;71.70;;;;;;5043206;28;20033;-46
2022/01/05 01:30:15;;;;;;;8.75;5.70;;;27.70;71.70;;;;;;5043941;28;20030;-48
2022/01/05 01:32:42;;;;;;;16.83;5.85;;;27.70;71.70;;;;;;5042726;28;20046;-46
2022/01/05 01:35:10;;;;;;;13.98;5.78;;;27.70;71.60;;;;;;5025212;28;20030;-47
2022/01/05 01:37:38;;;;;;;8.90;5.70;;;27.70;71.60;;;;;;5043055;28;20037;-47
2022/01/05 01:40:07;;;;;;;12.93;5.38;;;27.70;71.60;;;;;;5063883;28;20071;-47
2022/01/05 01:42:34;;;;;;;8.32;5.50;;;27.70;71.50;;;;;;5063652;28;20025;-46
2022/01/05 01:45:03;;;;;;;9.45;5.38;;;27.70;71.40;;;;;;5054955;28;20274;-43
2022/01/05 01:47:30;;;;;;;10.27;5.32;;;27.70;71.30;;;;;;5059489;28;20017;-46
2022/01/05 01:49:58;;;;;;;11.60;5.95;;;27.60;71.20;;;;;;5061075;28;20289;-44
2022/01/05 01:52:25;;;;;;;11.88;5.50;;;27.60;71.20;;;;;;5054235;28;20129;-48
2022/01/05 01:54:52;;;;;;;11.63;5.82;;;27.60;71.20;;;;;;5043490;28;20041;-50
2022/01/05 01:57:21;;;;;;;9.85;5.55;;;27.60;71.10;;;;;;5046253;28;20009;-47
2022/01/05 01:59:50;;;;;;;14.48;5.32;;;27.50;70.90;;;;;;5060315;28;20093;-46
2022/01/05 02:02:19;;;;;;;12.20;5.75;;;27.60;70.90;;;;;;5059706;28;20240;-42
2022/01/05 02:04:46;;;;;;;17.30;5.78;;;27.50;70.80;;;;;;5035091;28;20026;-43
2022/01/05 02:07:13;;;;;;;24.58;6.05;;;27.50;70.70;;;;;;5052030;28;20067;-47
2022/01/05 02:09:44;;;;;;;18.55;5.93;;;27.50;70.70;;;;;;5067479;28;20026;-44
2022/01/05 02:12:11;;;;;;;15.90;6.13;;;27.50;70.50;;;;;;5052431;28;20013;-47
2022/01/05 02:14:40;;;;;;;14.23;5.53;;;27.50;70.40;;;;;;5056948;28;20057;-43
2022/01/05 02:17:19;;;;;;;18.08;5.97;;;27.50;70.30;;;;;;5056289;28;20020;-47
2022/01/05 02:19:45;;;;;;;14.68;5.55;;;27.50;70.30;;;;;;5058492;28;20087;-47
2022/01/05 02:22:12;;;;;;;11.35;5.32;;;27.50;70.20;;;;;;5058133;28;20013;-43
2022/01/05 02:24:39;;;;;;;7.70;4.97;;;27.50;69.90;;;;;;5065499;28;20021;-47
2022/01/05 02:27:08;;;;;;;10.45;5.30;;;27.50;69.90;;;;;;5061772;28;20024;-51
2022/01/05 02:29:36;;;;;;;14.00;5.25;;;27.40;69.70;;;;;;5057888;28;20048;-46
2022/01/05 02:32:03;;;;;;;13.98;5.63;;;27.50;69.70;;;;;;5056411;28;20384;-42
2022/01/05 02:34:30;;;;;;;15.18;5.88;;;27.40;69.50;;;;;;5063758;28;20044;-48
2022/01/05 02:36:57;;;;;;;16.08;5.40;;;27.40;69.50;;;;;;5066947;28;20013;-49
2022/01/05 02:39:26;;;;;;;12.50;5.55;;;27.50;69.60;;;;;;5049215;28;20044;-47
2022/01/05 02:41:53;;;;;;;15.75;5.93;;;27.50;69.70;;;;;;5065315;28;20028;-47
2022/01/05 02:44:20;;;;;;;15.10;5.00;;;27.60;69.50;;;;;;5066772;28;20037;-49
2022/01/05 02:46:46;;;;;;;7.72;4.95;;;27.60;69.30;;;;;;5065798;28;20021;-47
2022/01/05 02:49:13;;;;;;;12.25;5.47;;;27.60;69.30;;;;;;5059159;28;20035;-46
2022/01/05 02:51:40;;;;;;;10.23;5.10;;;27.60;69.20;;;;;;5065142;28;20009;-46
2022/01/05 02:54:06;;;;;;;12.32;5.10;;;27.60;68.90;;;;;;5066403;28;20025;-47
2022/01/05 02:56:33;;;;;;;16.17;5.93;;;27.70;69.40;;;;;;5066147;28;20382;-49
2022/01/05 02:58:59;;;;;;;9.38;5.35;;;27.70;68.70;;;;;;5066421;28;20100;-47
2022/01/05 03:01:26;;;;;;;8.85;5.03;;;27.70;68.70;;;;;;5066341;28;20021;-43
2022/01/05 03:03:52;;;;;;;9.63;5.65;;;27.70;68.50;;;;;;5066325;28;20306;-47
2022/01/05 03:06:19;;;;;;;9.38;5.32;;;27.70;68.40;;;;;;5048675;28;20029;-54
2022/01/05 03:08:49;;;;;;;8.88;5.30;;;27.70;68.40;;;;;;5062469;28;20342;-44
2022/01/05 03:11:16;;;;;;;8.10;5.00;;;27.70;68.30;;;;;;5057120;28;20217;-52
2022/01/05 03:13:43;;;;;;;9.00;4.85;;;27.70;68.20;;;;;;5046222;28;20195;-52
2022/01/05 03:16:10;;;;;;;7.90;5.07;;;27.70;68.00;;;;;;5028273;28;20029;-43
2022/01/05 03:18:38;;;;;;;10.88;4.95;;;27.70;68.20;;;;;;5045623;28;20032;-46
2022/01/05 03:21:08;;;;;;;8.25;5.45;;;27.70;68.20;;;;;;5045779;28;20018;-45
2022/01/05 03:23:35;;;;;;;8.98;5.13;;;27.70;68.00;;;;;;5045743;28;20369;-46
2022/01/05 03:26:04;;;;;;;8.38;5.38;;;27.70;68.10;;;;;;5045373;28;20088;-47
2022/01/05 03:28:35;;;;;;;10.32;5.22;;;27.70;68.10;;;;;;5045693;28;20270;-45
2022/01/05 03:31:02;;;;;;;9.25;5.55;;;27.70;67.90;;;;;;5045535;28;20084;-50
2022/01/05 03:33:29;;;;;;;8.80;4.88;;;27.70;67.80;;;;;;5050590;28;20108;-47
2022/01/05 03:35:56;;;;;;;8.90;5.35;;;27.70;67.90;;;;;;5065425;28;20024;-51
2022/01/05 03:38:28;;;;;;;12.13;5.47;;;27.70;67.70;;;;;;5063689;28;20056;-48
2022/01/05 03:40:55;;;;;;;8.43;5.32;;;27.70;68.20;;;;;;5065396;28;20213;-51
2022/01/05 03:43:22;;;;;;;13.68;5.63;;;27.70;68.20;;;;;;5064985;28;20179;-54
2022/01/05 03:45:50;;;;;;;7.43;5.50;;;27.70;68.40;;;;;;5065258;28;20017;-44
2022/01/05 03:48:19;;;;;;;8.50;4.90;;;27.70;68.50;;;;;;5064567;28;20042;-46
2022/01/05 03:50:47;;;;;;;9.45;5.35;;;27.60;68.50;;;;;;5064798;28;20021;-50
2022/01/05 03:53:15;;;;;;;10.00;4.95;;;27.60;68.40;;;;;;5064960;28;20025;-51
2022/01/05 03:55:47;;;;;;;8.50;5.47;;;27.70;68.50;;;;;;5065288;28;20425;-44
2022/01/05 03:58:15;;;;;;;8.82;5.45;;;27.60;68.30;;;;;;5065211;28;20324;-52
2022/01/05 04:00:49;;;;;;;11.80;5.05;;;27.60;68.50;;;;;;5064919;28;20028;-50
2022/01/05 04:03:17;;;;;;;10.48;5.40;;;27.60;68.60;;;;;;5064378;28;20035;-49
2022/01/05 04:05:45;;;;;;;6.57;4.55;;;27.60;68.50;;;;;;5064041;28;20028;-49
2022/01/05 04:08:12;;;;;;;8.10;4.85;;;27.60;68.50;;;;;;5063709;28;20353;-47
2022/01/05 04:10:39;;;;;;;9.40;4.85;;;27.60;68.50;;;;;;5063169;28;20063;-49
2022/01/05 04:13:07;;;;;;;7.78;5.00;;;27.60;68.50;;;;;;5063240;28;20084;-47
2022/01/05 04:15:34;;;;;;;8.88;5.07;;;27.60;68.40;;;;;;5063946;28;20080;-47
2022/01/05 04:18:01;;;;;;;8.73;4.78;;;27.60;68.40;;;;;;5063967;28;20017;-43
2022/01/05 04:20:28;;;;;;;7.45;4.35;;;27.60;68.40;;;;;;5064578;28;20028;-48
2022/01/05 04:22:55;;;;;;;6.38;5.07;;;27.50;68.20;;;;;;5064424;28;20083;-48
2022/01/05 04:25:22;;;;;;;9.63;4.82;;;27.50;68.20;;;;;;5064806;28;20092;-51
2022/01/05 04:27:48;;;;;;;6.70;4.70;;;27.50;68.20;;;;;;5064606;28;20021;-47
2022/01/05 04:30:15;;;;;;;7.43;4.68;;;27.60;68.30;;;;;;5064889;28;20029;-47
2022/01/05 04:32:42;;;;;;;7.35;4.72;;;27.50;68.20;;;;;;5064277;28;20049;-50
2022/01/05 04:35:12;;;;;;;6.43;4.82;;;27.50;68.30;;;;;;5064930;28;20021;-47
2022/01/05 04:37:40;;;;;;;4.95;4.30;;;27.50;68.30;;;;;;5063514;28;20183;-51
2022/01/05 04:40:07;;;;;;;6.28;4.70;;;27.50;68.40;;;;;;5064785;28;20029;-54
2022/01/05 04:42:34;;;;;;;7.30;4.63;;;27.50;68.40;;;;;;5064392;28;20062;-53
2022/01/05 04:45:01;;;;;;;6.97;4.78;;;27.50;68.50;;;;;;5064624;28;20025;-45
2022/01/05 04:47:27;;;;;;;7.32;4.50;;;27.50;68.50;;;;;;5064156;28;20055;-53
2022/01/05 04:49:54;;;;;;;7.13;4.40;;;27.50;68.50;;;;;;5064399;28;20095;-52
2022/01/05 04:52:20;;;;;;;6.38;4.55;;;27.50;68.60;;;;;;5063879;28;20024;-45
2022/01/05 04:54:47;;;;;;;6.00;4.40;;;27.50;68.60;;;;;;5064605;28;20035;-48
2022/01/05 04:57:17;;;;;;;8.95;4.63;;;27.40;68.50;;;;;;5064108;28;20023;-48
2022/01/05 04:59:44;;;;;;;5.57;4.35;;;27.40;68.60;;;;;;5064308;28;20087;-46
2022/01/05 05:02:14;;;;;;;6.63;4.55;;;27.40;68.50;;;;;;5064054;28;20025;-48
2022/01/05 05:04:41;;;;;;;7.13;4.68;;;27.40;68.50;;;;;;5064177;28;20032;-47
2022/01/05 05:07:07;;;;;;;4.90;4.40;;;27.40;68.50;;;;;;5063761;28;20345;-52
2022/01/05 05:09:34;;;;;;;6.93;4.20;;;27.50;68.50;;;;;;5064025;28;20036;-53
2022/01/05 05:12:00;;;;;;;6.22;4.22;;;27.40;68.50;;;;;;5063903;28;20009;-47
2022/01/05 05:14:27;;;;;;;5.38;4.22;;;27.40;68.40;;;;;;5064027;28;20310;-44
2022/01/05 05:16:54;;;;;;;5.85;4.38;;;27.40;68.30;;;;;;5063717;28;20027;-47
2022/01/05 05:19:20;;;;;;;8.48;4.68;;;27.40;68.30;;;;;;5064000;28;20032;-45
2022/01/05 05:21:47;;;;;;;8.82;4.22;;;27.40;68.20;;;;;;5063626;28;20025;-44
2022/01/05 05:24:15;;;;;;;6.47;4.25;;;27.40;68.20;;;;;;5063881;28;20031;-45
2022/01/05 05:26:42;;;;;;;7.78;4.75;;;27.40;68.30;;;;;;5063735;28;20049;-52
2022/01/05 05:29:09;;;;;;;8.55;4.43;;;27.40;68.30;;;;;;5063638;28;20021;-43
2022/01/05 05:31:36;;;;;;;5.93;4.45;;;27.40;68.20;;;;;;5063639;28;20044;-56
2022/01/05 05:34:02;;;;;;;5.43;4.30;;;27.40;68.20;;;;;;5063880;28;20025;-49
2022/01/05 05:36:29;;;;;;;5.40;4.20;;;27.40;68.20;;;;;;5063434;28;20067;-49
2022/01/05 05:38:55;;;;;;;8.02;4.43;;;27.40;68.20;;;;;;5063815;28;20032;-46
2022/01/05 05:41:22;;;;;;;5.60;3.90;;;27.30;68.10;;;;;;5063572;28;20080;-44
2022/01/05 05:43:49;;;;;;;5.28;4.10;;;27.30;68.10;;;;;;5063620;28;20029;-52
2022/01/05 05:46:16;;;;;;;7.57;4.40;;;27.40;68.20;;;;;;5063429;28;20024;-48
2022/01/05 05:48:43;;;;;;;7.63;4.40;;;27.30;68.10;;;;;;5066509;28;20326;-50
2022/01/05 05:51:10;;;;;;;9.55;4.38;;;27.30;68.10;;;;;;5067425;28;20020;-54
2022/01/05 05:53:37;;;;;;;10.25;4.72;;;27.30;68.10;;;;;;5067608;28;20040;-46
2022/01/05 05:56:03;;;;;;;10.68;4.50;;;27.30;68.10;;;;;;5067425;28;20059;-48
2022/01/05 05:58:30;;;;;;;8.25;4.57;;;27.30;68.10;;;;;;5067496;28;20036;-45
2022/01/05 06:00:56;;;;;;;5.80;4.25;;;27.30;68.10;;;;;;5067261;28;20116;-56
2022/01/05 06:03:23;;;;;;;6.68;4.13;;;27.30;68.10;;;;;;5067547;28;20191;-47
2022/01/05 06:05:50;;;;;;;11.48;4.18;;;27.30;68.10;;;;;;5067114;28;20237;-54
2022/01/05 06:08:16;;;;;;;11.27;4.53;;;27.30;68.10;;;;;;5066981;28;20029;-47
2022/01/05 06:10:43;;;;;;;9.43;4.60;;;27.30;68.00;;;;;;5067170;28;20021;-46
2022/01/05 06:13:09;;;;;;;7.97;4.53;;;27.30;68.00;;;;;;5067142;28;20028;-43
2022/01/05 06:15:36;;;;;;;6.60;4.30;;;27.30;67.90;;;;;;5066904;28;20273;-49
2022/01/05 06:18:03;;;;;;;7.40;4.43;;;27.30;67.80;;;;;;5067009;28;20092;-46
2022/01/05 06:20:29;;;;;;;8.05;4.45;;;27.30;67.80;;;;;;5067112;28;20237;-46
2022/01/05 06:22:56;;;;;;;8.05;4.50;;;27.30;67.70;;;;;;5066774;28;20017;-44
2022/01/05 06:25:22;;;;;;;8.10;4.18;;;27.30;67.70;;;;;;5066924;28;20100;-51
2022/01/05 06:27:49;;;;;;;7.28;4.22;;;27.30;67.60;;;;;;5066741;28;20021;-45
2022/01/05 06:30:15;;;;;;;7.90;4.22;;;27.20;67.50;;;;;;5066880;28;20098;-49
2022/01/05 06:32:46;;;;;;;7.85;4.25;;;27.20;67.50;;;;;;5066504;28;20403;-48
2022/01/05 06:35:14;;;;;;;8.68;4.70;;;27.30;67.50;;;;;;5066508;28;20032;-47
2022/01/05 06:37:41;;;;;;;5.65;4.35;;;27.20;67.30;;;;;;5066451;28;20028;-49
2022/01/05 06:40:10;;;;;;;9.00;4.50;;;27.20;67.40;;;;;;5067019;28;20233;-48
2022/01/05 06:42:37;;;;;;;5.32;3.90;;;27.20;67.30;;;;;;5066443;28;20295;-49
2022/01/05 06:45:05;;;;;;;6.18;4.00;;;27.20;67.20;;;;;;5066910;28;20198;-50
2022/01/05 06:47:31;;;;;;;4.80;4.10;;;27.20;67.20;;;;;;5066438;28;20085;-51
2022/01/05 06:49:57;;;;;;;5.25;3.75;;;27.20;67.10;;;;;;5066811;28;20031;-47
2022/01/05 06:52:24;;;;;;;5.35;4.20;;;27.20;67.10;;;;;;5066230;28;20059;-50
2022/01/05 06:54:51;;;;;;;4.78;4.15;;;27.20;67.00;;;;;;5066882;28;20032;-45
2022/01/05 06:57:18;;;;;;;5.63;4.10;;;27.20;67.00;;;;;;5066182;28;20381;-47
2022/01/05 06:59:44;;;;;;;5.88;4.28;;;27.20;66.90;;;;;;5065808;28;20032;-55
2022/01/05 07:02:11;;;;;;;5.78;3.92;;;27.20;66.80;;;;;;5066246;28;20048;-45
2022/01/05 07:04:37;;;;;;;6.43;4.20;;;27.20;66.70;;;;;;5066563;28;20040;-53
2022/01/05 07:07:04;;;;;;;8.60;3.60;;;27.20;66.80;;;;;;5065971;28;20070;-55
2022/01/05 07:09:31;;;;;;;6.50;3.95;;;27.20;66.70;;;;;;5066243;28;20041;-48
2022/01/05 07:11:57;;;;;;;6.38;4.20;;;27.10;66.60;;;;;;5065978;28;20009;-45
2022/01/05 07:14:24;;;;;;;5.07;3.53;;;27.10;66.60;;;;;;5066088;28;20047;-52
2022/01/05 07:16:51;;;;;;;4.55;3.50;;;27.10;66.50;;;;;;5065863;28;20028;-52
2022/01/05 07:19:20;;;;;;;4.22;3.60;;;27.10;66.40;;;;;;5066189;28;20036;-44
2022/01/05 07:21:47;;;;;;;5.63;3.75;;;27.10;66.30;;;;;;5065731;28;20020;-45
2022/01/05 07:24:17;;;;;;;5.32;3.80;;;27.10;66.20;;;;;;5066204;28;20029;-45
2022/01/05 07:26:44;;;;;;;7.88;3.72;;;27.10;66.10;;;;;;5065673;28;20025;-44
2022/01/05 07:29:16;;;;;;;5.50;3.58;;;27.10;66.00;;;;;;5065701;28;20033;-54
2022/01/05 07:31:44;;;;;;;5.50;3.58;;;27.10;65.90;;;;;;5065484;28;20041;-50
2022/01/05 07:34:11;;;;;;;5.65;3.83;;;27.10;65.80;;;;;;5065853;28;20025;-49
2022/01/05 07:36:38;;;;;;;8.07;3.97;;;27.10;65.80;;;;;;5065505;28;20076;-45
2022/01/05 07:39:06;;;;;;;4.30;3.65;;;27.10;65.70;;;;;;5065687;28;20025;-46
2022/01/05 07:41:33;;;;;;;6.45;3.63;;;27.10;65.60;;;;;;5065376;28;20032;-50
2022/01/05 07:44:00;;;;;;;7.57;3.05;;;27.10;65.50;;;;;;5065521;28;20187;-47
2022/01/05 07:46:27;;;;;;;4.88;3.45;;;27.00;65.40;;;;;;5065437;28;20021;-46
2022/01/05 07:48:54;;;;;;;6.70;3.78;;;27.00;65.40;;;;;;5065362;28;20071;-50
2022/01/05 07:51:20;;;;;;;5.28;3.28;;;27.00;65.40;;;;;;5065217;28;20027;-48
2022/01/05 07:53:47;;;;;;;5.88;3.17;;;27.00;65.20;;;;;;5065373;28;20020;-49
2022/01/05 07:56:14;;;;;;;4.72;3.08;;;27.00;65.20;;;;;;5065275;28;20021;-45
2022/01/05 07:58:40;;;;;;;4.25;3.25;;;26.90;65.20;;;;;;5065100;28;20021;-48
2022/01/05 08:01:07;;;;;;;6.57;3.50;;;26.90;65.20;;;;;;5065104;28;20029;-48
2022/01/05 08:03:34;;;;;;;6.00;3.38;;;26.90;65.10;;;;;;5065180;28;20055;-47
2022/01/05 08:06:05;;;;;;;4.10;3.22;;;26.90;65.10;;;;;;5064812;28;20066;-49
2022/01/05 08:08:32;;;;;;;5.63;3.33;;;26.90;65.00;;;;;;5064975;28;20322;-48
2022/01/05 08:10:59;;;;;;;3.72;3.20;;;26.90;64.90;;;;;;5063889;28;20028;-44
2022/01/05 08:13:26;;;;;;;5.70;3.38;;;26.90;64.90;;;;;;5064756;28;20020;-45
2022/01/05 08:15:53;;;;;;;4.53;3.17;;;26.90;64.90;;;;;;5064849;28;20021;-46
2022/01/05 08:18:21;;;;;;;5.50;3.40;;;26.90;64.80;;;;;;5064646;28;20031;-45
2022/01/05 08:20:48;;;;;;;5.13;3.35;;;26.90;64.80;;;;;;5064589;28;20313;-48
2022/01/05 08:23:18;;;;;;;3.70;3.30;;;26.90;64.80;;;;;;5064703;28;20029;-47
2022/01/05 08:25:45;;;;;;;4.80;3.10;;;26.90;64.80;;;;;;5064668;28;20023;-53
2022/01/05 08:28:12;;;;;;;6.93;3.40;;;26.90;64.80;;;;;;5064410;28;20029;-48
2022/01/05 08:30:40;;;;;;;6.43;3.10;;;26.80;64.70;;;;;;5064569;28;20027;-51
2022/01/05 08:33:07;;;;;;;4.40;3.30;;;26.90;64.70;;;;;;5064334;28;20039;-46
2022/01/05 08:35:34;;;;;;;4.93;2.97;;;26.90;64.60;;;;;;5064399;28;20084;-53
2022/01/05 08:38:01;;;;;;;5.95;3.10;;;26.90;64.50;;;;;;5064341;28;20074;-49
2022/01/05 08:40:28;;;;;;;5.85;3.10;;;26.90;64.40;;;;;;5064418;28;20029;-45
2022/01/05 08:42:56;;;;;;;4.97;3.38;;;26.90;64.30;;;;;;5064014;28;20336;-45
2022/01/05 08:45:24;;;;;;;6.57;3.20;;;26.90;64.20;;;;;;5064453;28;20033;-47
2022/01/05 08:47:52;;;;;;;5.03;2.85;;;26.80;64.00;;;;;;5064131;28;20340;-46
2022/01/05 08:50:24;;;;;;;4.35;2.90;;;26.80;64.00;;;;;;5064279;28;20099;-53
2022/01/05 08:52:52;;;;;;;5.10;3.28;;;26.80;63.90;;;;;;5064037;28;20055;-50
2022/01/05 08:55:20;;;;;;;3.75;2.95;;;26.80;63.90;;;;;;5064020;28;20033;-50
2022/01/05 08:57:47;;;;;;;4.22;3.22;;;26.80;63.80;;;;;;5064039;28;20023;-48
2022/01/05 09:00:15;;;;;;;6.55;3.28;;;26.80;63.70;;;;;;5064569;28;20021;-50
2022/01/05 09:02:42;;;;;;;5.72;2.92;;;26.80;63.70;;;;;;5064038;28;20025;-53
2022/01/05 09:05:09;;;;;;;4.68;3.10;;;26.80;63.70;;;;;;5063910;28;20353;-55
2022/01/05 09:07:36;;;;;;;7.32;2.92;;;26.80;63.60;;;;;;5063836;28;20084;-45
2022/01/05 09:10:04;;;;;;;8.32;3.15;;;26.80;63.60;;;;;;5064312;28;20021;-49
2022/01/05 09:12:32;;;;;;;4.78;3.13;;;26.70;63.50;;;;;;5064085;28;20329;-47
2022/01/05 09:14:58;;;;;;;3.75;2.92;;;26.80;63.60;;;;;;5064339;28;20024;-52
2022/01/05 09:17:26;;;;;;;6.15;2.90;;;26.70;63.60;;;;;;5046044;28;20216;-52
2022/01/05 09:19:52;;;;;;;5.68;2.90;;;26.70;63.60;;;;;;5064243;28;20056;-46
2022/01/05 09:22:20;;;;;;;6.00;3.00;;;26.70;63.70;;;;;;5063537;28;20055;-47
2022/01/05 09:24:47;;;;;;;6.75;3.40;;;26.70;63.60;;;;;;5064140;28;20025;-48
2022/01/05 09:27:13;;;;;;;6.03;2.97;;;26.70;63.90;;;;;;5063767;28;20028;-53
2022/01/05 09:29:40;;;;;;;6.93;3.20;;;26.70;63.70;;;;;;5064028;28;20020;-49
2022/01/05 09:32:09;;;;;;;7.80;3.35;;;26.70;63.70;;;;;;5063465;28;20052;-51
2022/01/05 09:34:42;;;;;;;3.47;2.92;;;26.70;63.70;;;;;;5063995;28;20361;-47
2022/01/05 09:37:26;;;;;;;5.25;3.33;;;26.70;63.70;;;;;;5063741;28;20202;-52
2022/01/05 09:42:39;;;;;;;4.55;3.13;;;26.70;63.70;;;;;;5063715;28;20085;-47
2022/01/05 09:45:28;;;;;;;5.15;3.17;;;26.60;63.70;;;;;;5063885;28;20029;-48
2022/01/05 09:47:57;;;;;;;4.80;3.10;;;26.70;63.70;;;;;;5063343;28;20041;-47
2022/01/05 09:50:25;;;;;;;4.75;3.10;;;26.60;63.60;;;;;;5063671;28;20108;-51
2022/01/05 09:52:54;;;;;;;11.90;3.28;;;26.60;63.60;;;;;;5063443;28;20017;-49
2022/01/05 09:55:21;;;;;;;5.55;3.20;;;26.60;63.50;;;;;;5063231;28;20055;-47
2022/01/05 09:57:47;;;;;;;4.15;2.85;;;26.60;63.50;;;;;;5063517;28;20009;-53
2022/01/05 10:00:16;;;;;;;7.10;3.10;;;26.60;63.30;;;;;;5064018;28;20029;-46
2022/01/05 10:02:45;;;;;;;5.03;3.08;;;26.60;63.30;;;;;;5063152;28;20021;-49
2022/01/05 10:05:16;;;;;;;5.53;3.08;;;26.60;63.10;;;;;;5063772;28;20096;-50
2022/01/05 10:07:42;;;;;;;5.43;3.10;;;26.60;63.00;;;;;;5063428;28;20035;-46
2022/01/05 10:10:10;;;;;;;5.28;2.95;;;26.60;62.90;;;;;;5063639;28;20035;-46
2022/01/05 10:12:36;;;;;;;7.80;2.70;;;26.60;62.90;;;;;;5063273;28;20302;-51
2022/01/05 10:15:04;;;;;;;3.17;2.75;;;26.60;62.60;;;;;;5063720;28;20301;-46
2022/01/05 10:17:36;;;;;;;8.68;3.25;;;26.60;62.60;;;;;;5062932;28;20016;-47
2022/01/05 10:20:08;;;;;;;6.63;2.97;;;26.60;62.70;;;;;;5063603;28;20218;-45
2022/01/05 10:22:37;;;;;;;7.30;3.15;;;26.50;62.70;;;;;;5063095;28;20294;-49
2022/01/05 10:25:05;;;;;;;6.85;3.28;;;26.50;62.80;;;;;;5063542;28;20024;-50
2022/01/05 10:27:32;;;;;;;7.65;3.42;;;26.50;63.00;;;;;;5063196;28;20020;-47
2022/01/05 10:30:10;;;;;;;53.92;4.78;;;26.50;63.20;;;;;;5063532;28;20087;-48
2022/01/05 10:32:37;;;;;;;6.82;3.20;;;26.40;63.30;;;;;;5062992;28;20044;-46
2022/01/05 10:35:06;;;;;;;8.07;3.30;;;26.40;63.40;;;;;;5065484;28;20021;-51
2022/01/05 10:37:34;;;;;;;9.35;3.08;;;26.40;63.60;;;;;;5066524;28;20079;-48
2022/01/05 10:40:20;;;;;;;9.45;3.50;;;26.40;63.70;;;;;;5067142;28;20037;-45
2022/01/05 10:42:52;;;;;;;5.75;3.38;;;26.40;63.90;;;;;;5066404;28;20083;-50
2022/01/05 10:45:20;;;;;;;;;;;26.40;64.00;;;;;;5067011;28;20036;-44
2022/01/05 10:48:07;;;;;;;7.60;3.15;;;26.30;64.10;;;;;;5066486;28;19900;-51
2022/01/05 10:50:35;;;;;;;9.80;3.38;;;26.30;64.30;;;;;;5066289;28;20033;-46
2022/01/05 10:53:02;;;;;;;8.40;3.40;;;26.30;64.50;;;;;;5066428;28;20021;-49
2022/01/05 10:55:30;;;;;;;7.18;3.30;;;26.30;64.70;;;;;;5066260;28;20025;-51
2022/01/05 10:58:07;;;;;;;7.25;3.28;;;26.30;64.80;;;;;;5050452;28;20025;-53
2022/01/05 11:00:40;;;;;;;8.50;3.65;;;26.30;64.90;;;;;;5045973;28;20024;-48
2022/01/05 11:03:32;;;;;;;6.50;3.28;;;26.30;65.00;;;;;;5046109;28;20018;-44
2022/01/05 11:06:06;;;;;;;7.60;3.67;;;26.30;65.20;;;;;;5045884;28;20029;-52
2022/01/05 11:08:54;;;;;;;9.70;3.75;;;26.30;65.40;;;;;;5046095;28;20029;-46
2022/01/05 11:11:39;;;;;;;14.50;3.85;;;26.30;65.50;;;;;;5046048;28;20210;-49
2022/01/05 11:14:07;;;;;;;10.27;3.78;;;26.20;65.50;;;;;;5046070;28;20021;-50
2022/01/05 11:16:34;;;;;;;11.95;3.88;;;26.20;65.50;;;;;;5045558;28;20031;-46
2022/01/05 11:19:15;;;;;;;13.35;4.25;;;26.20;65.70;;;;;;5045901;28;20224;-52
2022/01/05 11:21:57;;;;;;;8.45;4.00;;;26.20;65.90;;;;;;5045544;28;20260;-45
2022/01/05 11:24:25;;;;;;;10.90;3.97;;;26.20;65.90;;;;;;5045949;28;20029;-45
2022/01/05 11:26:52;;;;;;;19.50;4.80;;;26.20;66.00;;;;;;5045697;28;20033;-50
2022/01/05 11:29:19;;;;;;;16.50;4.28;;;26.20;66.20;;;;;;5044940;28;20025;-49
2022/01/05 11:31:46;;;;;;;8.50;4.03;;;26.20;66.20;;;;;;5050165;28;20048;-56
2022/01/05 11:34:13;;;;;;;16.02;4.30;;;26.20;66.20;;;;;;5058881;28;20044;-44
2022/01/05 11:36:42;;;;;;;11.88;4.15;;;26.20;66.10;;;;;;5064989;28;20020;-48
2022/01/05 11:39:08;;;;;;;16.00;4.72;;;26.20;66.10;;;;;;5054379;28;20079;-50
2022/01/05 11:41:40;;;;;;;11.88;4.50;;;26.20;66.20;;;;;;5054593;28;20013;-48
2022/01/05 11:44:08;;;;;;;9.52;3.90;;;26.20;66.20;;;;;;5054542;28;20021;-51
2022/01/05 11:46:36;;;;;;;14.82;4.43;;;26.20;66.20;;;;;;5060136;28;20085;-50
2022/01/05 11:49:07;;;;;;;15.40;4.72;;;26.30;66.20;;;;;;5059792;28;20029;-48
2022/01/05 11:51:43;;;;;;;17.60;4.43;;;26.20;66.10;;;;;;5052912;28;20013;-50
2022/01/05 11:54:13;;;;;;;13.82;4.35;;;26.30;66.10;;;;;;5053521;28;20024;-51
2022/01/05 11:56:47;;;;;;;12.00;4.50;;;26.30;66.20;;;;;;5055998;28;20340;-51
2022/01/05 11:59:33;;;;;;;14.55;4.22;;;26.30;66.30;;;;;;5063148;28;20056;-49
2022/01/05 12:02:18;;;;;;;15.23;4.25;;;26.30;66.40;;;;;;5055830;28;20207;-44
2022/01/05 12:04:56;;;;;;;14.63;4.10;;;26.30;66.40;;;;;;5055582;28;20024;-51
2022/01/05 12:07:39;;;;;;;9.93;4.13;;;26.30;66.40;;;;;;5055753;28;20074;-45
2022/01/05 12:10:13;;;;;;;14.85;4.07;;;26.30;66.40;;;;;;5056080;28;20045;-48
2022/01/05 12:13:05;;;;;;;13.82;4.05;;;26.30;66.40;;;;;;5054481;28;20025;-46
2022/01/05 12:15:56;;;;;;;13.70;4.50;;;26.40;66.50;;;;;;5055470;28;20013;-53
2022/01/05 12:18:36;;;;;;;13.30;4.13;;;26.40;66.40;;;;;;5055471;28;20021;-46
2022/01/05 12:21:02;;;;;;;20.38;4.68;;;26.40;66.20;;;;;;5055442;28;20170;-44
2022/01/05 12:23:32;;;;;;;10.73;4.18;;;26.40;66.20;;;;;;5055446;28;20040;-53
2022/01/05 12:26:08;;;;;;;11.52;3.60;;;26.40;66.00;;;;;;5054322;28;20018;-45
2022/01/05 12:28:42;;;;;;;11.45;3.85;;;26.40;65.90;;;;;;5055295;28;20025;-44
2022/01/05 12:31:12;;;;;;;8.38;3.70;;;26.50;65.90;;;;;;5054935;28;20009;-53
2022/01/05 12:33:55;;;;;;;12.63;4.20;;;26.50;65.80;;;;;;5054499;28;20025;-48
2022/01/05 12:36:36;;;;;;;10.68;3.70;;;26.50;65.70;;;;;;5057261;28;20067;-52
2022/01/05 12:39:09;;;;;;;9.45;3.70;;;26.50;65.60;;;;;;5061904;28;20305;-47
2022/01/05 12:41:41;;;;;;;12.52;4.40;;;26.50;65.60;;;;;;5061826;28;20025;-48
2022/01/05 12:44:18;;;;;;;11.53;4.03;;;26.50;65.70;;;;;;5058383;28;20135;-50
2022/01/05 12:46:45;;;;;;;15.43;4.38;;;26.50;65.60;;;;;;5044209;28;20029;-45
2022/01/05 12:49:12;;;;;;;11.40;3.67;;;26.60;65.80;;;;;;5046948;28;20085;-48
2022/01/05 12:51:44;;;;;;;17.60;4.22;;;26.60;65.90;;;;;;5054567;28;20244;-52
2022/01/05 12:54:42;;;;;;;9.95;3.95;;;26.60;66.00;;;;;;5054698;28;20025;-45